Country
Station

 

Weather  for  Catania/Sigonella  -  Italy    Italy

  
21 °C (70 °F)
    
 
 

Current METAR for Catania/Sigonella is :

LICZ 211455Z 08015KT 9999 FEW030 21/12 Q1016

 

This is a report for Catania/Sigonella - Italy.
 
The report was made 54 minutes ago, at 14:55 UTC .
The wind was blowing at a speed of 7.7 meters per second (17.3 miles per hour) from east (080°).
 
The temperature was 21 °C (70 °F), with a dew-point at 12 °C (54 °F).
The atmospheric pressure was 1016 hPa (30.00 inHg).
The relative humidity was 56.4%.
 
There were a few clouds at a height of 914 meters (3000 feet).
 
The overall visibility was greater than 10 kilometers (6.2 miles).
 

 
 
 
 

Country :   A   B   C   D   E   F   G   H   I   J   K   L   M   N   O   P   Q   R   S   T   U   V   W   Y   Z

 

Site Info  |  Disclaimer  |  Credits  |  Privacy
Contact us  |  Add to favorites
© 2013-2019 METARs - All rights reserved